createdAt,value
2022-09-25T00:00:58.384Z,11.9
2022-09-25T00:02:05.531Z,11.9
2022-09-25T00:03:12.504Z,11.9
2022-09-25T00:04:19.651Z,11.9
2022-09-25T00:05:26.263Z,11.9
2022-09-25T00:07:40.457Z,12
2022-09-25T00:08:47.767Z,12
2022-09-25T00:09:54.139Z,12
2022-09-25T00:11:01.800Z,12
2022-09-25T00:12:08.394Z,11.9
2022-09-25T00:13:15.456Z,11.9
2022-09-25T00:14:22.656Z,11.9
2022-09-25T00:15:29.694Z,11.9
2022-09-25T00:17:43.322Z,11.8
2022-09-25T00:18:50.516Z,11.7
2022-09-25T00:19:57.652Z,11.7
2022-09-25T00:21:04.172Z,11.7
2022-09-25T00:22:11.274Z,11.6
2022-09-25T00:23:18.402Z,11.6
2022-09-25T00:24:25.543Z,11.6
2022-09-25T00:25:32.566Z,11.5
2022-09-25T00:26:39.721Z,11.5
2022-09-25T00:27:46.280Z,11.5
2022-09-25T00:28:53.373Z,11.5
2022-09-25T00:30:00.556Z,11.4
2022-09-25T00:31:07.696Z,11.4
2022-09-25T00:32:14.154Z,11.4
2022-09-25T00:33:21.296Z,11.4
2022-09-25T00:35:35.502Z,11.4
2022-09-25T00:36:42.545Z,11.4
2022-09-25T00:37:49.163Z,11.4
2022-09-25T00:40:03.450Z,11.4
2022-09-25T00:41:10.469Z,11.4
2022-09-25T00:42:17.615Z,11.4
2022-09-25T00:43:24.203Z,11.4
2022-09-25T00:44:31.293Z,11.4
2022-09-25T00:45:38.412Z,11.4
2022-09-25T00:46:45.454Z,11.4
2022-09-25T00:47:52.611Z,11.4
2022-09-25T00:48:59.218Z,11.4
2022-09-25T00:50:06.318Z,11.4
2022-09-25T00:51:13.371Z,11.4
2022-09-25T00:52:20.541Z,11.4
2022-09-25T00:53:27.609Z,11.4
2022-09-25T00:54:34.202Z,11.4
2022-09-25T00:55:41.281Z,11.4
2022-09-25T00:56:48.906Z,11.4
2022-09-25T00:59:02.577Z,11.4
2022-09-25T01:00:09.192Z,11.4
2022-09-25T01:01:16.388Z,11.4
2022-09-25T01:03:30.544Z,11.5
2022-09-25T01:04:37.641Z,11.5
2022-09-25T01:05:44.169Z,11.5
2022-09-25T01:06:51.392Z,11.5
2022-09-25T01:07:58.424Z,11.5
2022-09-25T01:09:05.544Z,11.6
2022-09-25T01:10:12.799Z,11.6
2022-09-25T01:11:19.216Z,11.6
2022-09-25T01:12:26.383Z,11.6
2022-09-25T01:13:33.431Z,11.6
2022-09-25T01:14:40.544Z,11.6
2022-09-25T01:15:47.674Z,11.6
2022-09-25T01:16:54.300Z,11.6
2022-09-25T01:18:01.372Z,11.6
2022-09-25T01:19:08.422Z,11.6
2022-09-25T01:20:15.698Z,11.6
2022-09-25T01:21:22.124Z,11.7
2022-09-25T01:22:29.263Z,11.7
2022-09-25T01:23:36.395Z,11.7
2022-09-25T01:31:25.872Z,11.8
2022-09-25T01:32:32.125Z,11.8
2022-09-25T01:33:39.236Z,11.8
2022-09-25T01:34:46.372Z,11.8
2022-09-25T01:35:53.480Z,11.8
2022-09-25T01:37:00.551Z,11.8
2022-09-25T01:38:07.651Z,11.8
2022-09-25T01:40:21.395Z,11.8
2022-09-25T01:41:28.534Z,11.8
2022-09-25T01:43:42.201Z,11.8
2022-09-25T01:44:49.258Z,11.8
2022-09-25T01:45:56.450Z,11.8
2022-09-25T01:47:03.429Z,11.8
2022-09-25T01:48:10.598Z,11.8
2022-09-25T01:49:17.193Z,11.7
2022-09-25T01:50:24.229Z,11.8
2022-09-25T01:51:31.369Z,11.8
2022-09-25T01:52:38.518Z,11.8
2022-09-25T01:53:47.884Z,11.8
2022-09-25T01:54:52.181Z,11.8
2022-09-25T01:55:59.361Z,11.8
2022-09-25T01:57:06.370Z,11.9
2022-09-25T01:59:20.580Z,11.9
2022-09-25T02:00:27.167Z,11.9
2022-09-25T02:01:34.913Z,11.9
2022-09-25T02:02:41.439Z,11.9
2022-09-25T02:03:48.487Z,11.9
2022-09-25T02:04:55.642Z,12
2022-09-25T02:06:02.212Z,12
2022-09-25T02:07:09.291Z,12
2022-09-25T02:08:16.393Z,12
2022-09-25T02:09:23.492Z,12
2022-09-25T02:10:30.602Z,12
2022-09-25T02:11:37.254Z,12
2022-09-25T02:12:44.250Z,12
2022-09-25T02:13:51.432Z,12
2022-09-25T02:14:58.541Z,12
2022-09-25T02:16:05.652Z,12
2022-09-25T02:17:12.263Z,12
2022-09-25T02:18:19.359Z,12
2022-09-25T02:19:26.405Z,12
2022-09-25T02:21:40.092Z,12
2022-09-25T02:22:47.263Z,12
2022-09-25T02:23:54.272Z,12
2022-09-25T02:25:01.423Z,12
2022-09-25T02:26:08.506Z,12
2022-09-25T02:27:15.602Z,12
2022-09-25T02:28:22.210Z,12
2022-09-25T02:29:29.332Z,12
2022-09-25T02:31:43.492Z,12
2022-09-25T02:32:50.162Z,12
2022-09-25T02:33:57.253Z,12
2022-09-25T02:35:04.341Z,12
2022-09-25T02:36:11.461Z,12
2022-09-25T02:37:18.559Z,12
2022-09-25T02:38:25.133Z,12
2022-09-25T02:39:32.368Z,12
2022-09-25T02:40:39.410Z,12
2022-09-25T02:41:46.483Z,12
2022-09-25T02:42:53.533Z,12
2022-09-25T02:44:00.165Z,12.1
2022-09-25T02:45:07.282Z,12.1
2022-09-25T02:46:14.484Z,12.1
2022-09-25T02:47:21.431Z,12.1
2022-09-25T02:48:28.574Z,12.1
2022-09-25T02:49:35.095Z,12.1
2022-09-25T02:50:42.295Z,12.1
2022-09-25T02:51:49.382Z,12.1
2022-09-25T02:52:56.519Z,12.1
2022-09-25T02:54:03.609Z,12
2022-09-25T02:55:10.136Z,12
2022-09-25T02:56:17.262Z,12
2022-09-25T02:57:24.423Z,12
2022-09-25T02:58:31.450Z,12
2022-09-25T02:59:38.582Z,12
2022-09-25T03:00:45.629Z,12
2022-09-25T03:02:59.537Z,12
2022-09-25T03:04:06.528Z,12
2022-09-25T03:05:13.531Z,12
2022-09-25T03:06:20.182Z,12
2022-09-25T03:07:27.771Z,12
2022-09-25T03:08:34.473Z,12
2022-09-25T03:09:41.479Z,12
2022-09-25T03:10:48.571Z,12
2022-09-25T03:11:55.162Z,12
2022-09-25T03:13:02.263Z,12
2022-09-25T03:14:09.482Z,12
2022-09-25T03:15:16.488Z,12
2022-09-25T03:16:23.664Z,12
2022-09-25T03:17:30.192Z,12
2022-09-25T03:18:37.320Z,12
2022-09-25T03:19:44.413Z,12
2022-09-25T03:20:51.493Z,12
2022-09-25T03:21:58.071Z,12
2022-09-25T03:23:05.373Z,12.1
2022-09-25T03:24:12.423Z,12
2022-09-25T03:25:19.463Z,12.1
2022-09-25T03:26:26.531Z,12
2022-09-25T03:27:33.036Z,12.1
2022-09-25T03:29:47.346Z,12
2022-09-25T03:30:54.546Z,12.1
2022-09-25T03:32:01.623Z,12
2022-09-25T03:33:08.085Z,12
2022-09-25T03:34:15.222Z,12
2022-09-25T03:35:22.374Z,12
2022-09-25T03:36:29.400Z,12
2022-09-25T03:37:36.569Z,12
2022-09-25T03:38:43.575Z,12
2022-09-25T03:39:50.182Z,12
2022-09-25T03:40:57.425Z,12
2022-09-25T03:42:04.419Z,12
2022-09-25T03:44:18.231Z,12
2022-09-25T03:45:25.205Z,12
2022-09-25T03:46:32.399Z,12
2022-09-25T03:47:39.412Z,12
2022-09-25T03:48:46.520Z,12
2022-09-25T03:49:53.093Z,12.1
2022-09-25T03:51:00.210Z,12
2022-09-25T03:52:07.365Z,12.1
2022-09-25T03:53:14.441Z,12
2022-09-25T03:54:21.524Z,12.1
2022-09-25T03:55:28.132Z,12.1
2022-09-25T03:57:42.295Z,12
2022-09-25T03:59:56.572Z,12
2022-09-25T04:01:04.203Z,12
2022-09-25T04:02:10.341Z,12
2022-09-25T04:03:17.373Z,12
2022-09-25T04:04:24.467Z,12
2022-09-25T04:05:31.605Z,12
2022-09-25T04:06:38.129Z,12
2022-09-25T04:07:45.244Z,12
2022-09-25T04:08:52.443Z,12
2022-09-25T04:09:58.919Z,12
2022-09-25T04:09:59.443Z,12
2022-09-25T04:11:06.555Z,12
2022-09-25T04:12:13.140Z,12
2022-09-25T04:13:20.226Z,12.1
2022-09-25T04:14:27.402Z,12
2022-09-25T04:15:34.420Z,12
2022-09-25T04:16:41.674Z,12
2022-09-25T04:17:48.141Z,12
2022-09-25T04:18:55.253Z,12.1
2022-09-25T04:20:02.356Z,12
2022-09-25T04:21:09.559Z,12
2022-09-25T04:22:16.619Z,12
2022-09-25T04:23:23.165Z,12
2022-09-25T04:25:37.743Z,12
2022-09-25T04:26:44.462Z,12
2022-09-25T04:27:51.585Z,12
2022-09-25T04:28:58.184Z,12.1
2022-09-25T04:30:05.326Z,12
2022-09-25T04:31:13.518Z,12.1
2022-09-25T04:32:19.473Z,12.1
2022-09-25T04:33:26.144Z,12
2022-09-25T04:34:33.173Z,12
2022-09-25T04:35:41.415Z,12
2022-09-25T04:36:49.048Z,12
2022-09-25T04:37:54.482Z,12
2022-09-25T04:39:01.079Z,12.1
2022-09-25T04:40:08.272Z,12
2022-09-25T04:41:15.647Z,12
2022-09-25T04:42:23.395Z,12.1
2022-09-25T04:43:29.494Z,12
2022-09-25T04:44:36.130Z,12.1
2022-09-25T04:45:43.274Z,12
2022-09-25T04:46:50.525Z,12.1
2022-09-25T04:47:57.413Z,12
2022-09-25T04:49:04.465Z,12
2022-09-25T04:50:11.672Z,12
2022-09-25T04:51:18.194Z,11.9
2022-09-25T04:52:25.331Z,11.9
2022-09-25T04:53:32.368Z,11.9
2022-09-25T04:54:39.590Z,11.9
2022-09-25T04:55:46.249Z,11.9
2022-09-25T04:56:53.191Z,11.9
2022-09-25T04:58:00.346Z,11.9
2022-09-25T04:59:07.953Z,11.9
2022-09-25T05:00:14.543Z,11.9
2022-09-25T05:01:21.176Z,11.9
2022-09-25T05:02:28.365Z,11.9
2022-09-25T05:03:35.493Z,11.9
2022-09-25T05:04:42.404Z,11.9
2022-09-25T05:06:56.117Z,12
2022-09-25T05:08:03.179Z,12
2022-09-25T05:09:10.451Z,12
2022-09-25T05:10:17.449Z,12
2022-09-25T05:11:24.520Z,12.1
2022-09-25T05:13:38.229Z,12
2022-09-25T05:14:45.364Z,12.1
2022-09-25T05:15:52.447Z,12.1
2022-09-25T05:16:59.536Z,12.1
2022-09-25T05:18:06.121Z,12.1
2022-09-25T05:19:13.189Z,12.1
2022-09-25T05:20:20.419Z,12.1
2022-09-25T05:21:27.493Z,12.1
2022-09-25T05:22:34.504Z,12.1
2022-09-25T05:23:42.203Z,12.1
2022-09-25T05:24:48.273Z,12.1
2022-09-25T05:25:55.375Z,12.1
2022-09-25T05:28:09.544Z,12.1
2022-09-25T05:29:16.193Z,12.1
2022-09-25T05:30:23.227Z,12.1
2022-09-25T05:31:30.406Z,12.1
2022-09-25T05:32:37.517Z,12.2
2022-09-25T05:33:44.022Z,12.2
2022-09-25T05:34:51.161Z,12.2
2022-09-25T05:35:58.283Z,12.2
2022-09-25T05:37:05.366Z,12.2
2022-09-25T05:38:12.422Z,12.2
2022-09-25T05:39:19.644Z,12.2
2022-09-25T05:40:26.333Z,12.2
2022-09-25T05:41:33.218Z,12.2
2022-09-25T05:42:40.372Z,12.2
2022-09-25T05:43:47.467Z,12.2
2022-09-25T05:44:54.070Z,12.2
2022-09-25T05:46:01.241Z,12.2
2022-09-25T05:48:15.415Z,12.2
2022-09-25T05:49:22.547Z,12.2
2022-09-25T05:50:29.104Z,12.2
2022-09-25T05:51:36.201Z,12.2
2022-09-25T05:52:43.262Z,12.2
2022-09-25T05:53:50.383Z,12.2
2022-09-25T05:56:04.022Z,12.2
2022-09-25T05:57:11.166Z,12.2
2022-09-25T05:58:18.317Z,12.2
2022-09-25T05:59:25.463Z,12.2
2022-09-25T06:00:32.454Z,12.2
2022-09-25T06:01:39.263Z,12.2
2022-09-25T06:02:46.219Z,12.2
2022-09-25T06:03:53.319Z,12.2
2022-09-25T06:05:01.462Z,12.3
2022-09-25T06:06:07.522Z,12.3
2022-09-25T06:07:14.042Z,12.3
2022-09-25T06:08:21.214Z,12.3
2022-09-25T06:09:28.290Z,12.3
2022-09-25T06:10:35.447Z,12.3
2022-09-25T06:11:42.521Z,12.3
2022-09-25T06:12:49.120Z,12.3
2022-09-25T06:13:56.193Z,12.3
2022-09-25T06:15:03.266Z,12.3
2022-09-25T06:17:17.615Z,12.3
2022-09-25T06:18:24.104Z,12.3
2022-09-25T06:19:31.233Z,12.4
2022-09-25T06:20:38.334Z,12.4
2022-09-25T06:21:45.492Z,12.4
2022-09-25T06:22:53.207Z,12.4
2022-09-25T06:23:59.112Z,12.4
2022-09-25T06:25:06.210Z,12.4
2022-09-25T06:26:13.322Z,12.4
2022-09-25T06:27:20.490Z,12.4
2022-09-25T06:29:34.170Z,12.4
2022-09-25T06:30:41.243Z,12.4
2022-09-25T06:31:48.343Z,12.4
2022-09-25T06:32:55.442Z,12.4
2022-09-25T06:34:02.003Z,12.4
2022-09-25T06:35:09.142Z,12.4
2022-09-25T06:36:16.231Z,12.4
2022-09-25T06:37:23.330Z,12.4
2022-09-25T06:38:30.457Z,12.4
2022-09-25T06:39:37.019Z,12.4
2022-09-25T06:40:44.140Z,12.4
2022-09-25T06:41:51.253Z,12.4
2022-09-25T06:42:58.342Z,12.4
2022-09-25T06:44:05.492Z,12.4
2022-09-25T06:45:12.067Z,12.4
2022-09-25T06:46:20.333Z,12.4
2022-09-25T06:47:26.948Z,12.4
2022-09-25T06:48:33.305Z,12.4
2022-09-25T06:49:40.476Z,12.4
2022-09-25T06:50:47.019Z,12.4
2022-09-25T06:50:47.107Z,12.4
2022-09-25T06:51:54.152Z,12.5
2022-09-25T06:53:01.283Z,12.5
2022-09-25T06:54:08.384Z,12.5
2022-09-25T06:55:15.479Z,12.5
2022-09-25T06:56:22.042Z,12.5
2022-09-25T06:57:29.194Z,12.5
2022-09-25T06:58:36.284Z,12.5
2022-09-25T06:59:43.354Z,12.5
2022-09-25T07:00:50.456Z,12.5
2022-09-25T07:01:57.375Z,12.5
2022-09-25T07:03:04.202Z,12.5
2022-09-25T07:04:11.392Z,12.5
2022-09-25T07:05:18.393Z,12.5
2022-09-25T07:06:25.426Z,12.5
2022-09-25T07:07:32.050Z,12.5
2022-09-25T07:08:39.152Z,12.4
2022-09-25T07:10:53.345Z,12.5
2022-09-25T07:12:00.502Z,12.5
2022-09-25T07:13:07.060Z,12.5
2022-09-25T07:14:14.216Z,12.5
2022-09-25T07:15:21.303Z,12.5
2022-09-25T07:16:28.574Z,12.5
2022-09-25T07:17:35.610Z,12.6
2022-09-25T07:18:42.067Z,12.6
2022-09-25T07:20:56.283Z,12.6
2022-09-25T07:22:03.382Z,12.6
2022-09-25T07:23:10.545Z,12.6
2022-09-25T07:24:17.081Z,12.6
2022-09-25T07:25:24.175Z,12.6
2022-09-25T07:26:31.333Z,12.6
2022-09-25T07:27:38.981Z,12.6
2022-09-25T07:28:46.058Z,12.6
2022-09-25T07:29:52.114Z,12.6
2022-09-25T07:30:59.305Z,12.6
2022-09-25T07:33:13.534Z,12.6
2022-09-25T07:34:20.564Z,12.6
2022-09-25T07:35:27.083Z,12.6
2022-09-25T07:36:34.195Z,12.6
2022-09-25T07:37:41.324Z,12.6
2022-09-25T07:38:48.480Z,12.6
2022-09-25T07:39:56.321Z,12.6
2022-09-25T07:41:02.136Z,12.6
2022-09-25T07:42:09.197Z,12.6
2022-09-25T07:43:16.324Z,12.6
2022-09-25T07:44:29.134Z,12.6
2022-09-25T07:45:30.029Z,12.6
2022-09-25T07:46:37.191Z,12.6
2022-09-25T07:47:44.224Z,12.6
2022-09-25T07:48:51.373Z,12.6
2022-09-25T07:49:58.433Z,12.7
2022-09-25T07:52:12.173Z,12.7
2022-09-25T07:53:19.308Z,12.7
2022-09-25T07:54:26.410Z,12.7
2022-09-25T07:55:33.436Z,12.7
2022-09-25T07:56:40.021Z,12.7
2022-09-25T07:57:47.100Z,12.7
2022-09-25T07:58:54.274Z,12.7
2022-09-25T08:00:01.350Z,12.8
2022-09-25T08:01:08.595Z,12.8
2022-09-25T08:02:15.167Z,12.8
2022-09-25T08:03:22.255Z,12.8
2022-09-25T08:04:29.298Z,12.8
2022-09-25T08:05:36.397Z,12.8
2022-09-25T08:06:43.468Z,12.8
2022-09-25T08:07:50.063Z,12.8
2022-09-25T08:08:58.188Z,12.8
2022-09-25T08:10:04.525Z,12.8
2022-09-25T08:11:11.380Z,12.8
2022-09-25T08:12:17.983Z,12.8
2022-09-25T08:13:25.043Z,12.8
2022-09-25T08:14:32.219Z,12.8
2022-09-25T08:15:39.763Z,12.8
2022-09-25T08:16:49.319Z,12.8
2022-09-25T08:17:52.911Z,12.8
2022-09-25T08:19:00.155Z,12.9
2022-09-25T08:20:07.227Z,12.9
2022-09-25T08:21:14.374Z,12.9
2022-09-25T08:22:21.378Z,12.9
2022-09-25T08:24:35.137Z,12.9
2022-09-25T08:25:42.160Z,12.9
2022-09-25T08:26:49.289Z,12.9
2022-09-25T08:27:56.378Z,12.9
2022-09-25T08:29:03.438Z,12.9
2022-09-25T08:30:10.719Z,12.9
2022-09-25T08:31:17.196Z,12.9
2022-09-25T08:33:31.519Z,12.9
2022-09-25T08:34:41.380Z,13
2022-09-25T08:35:45.533Z,12.9
2022-09-25T08:36:52.189Z,12.9
2022-09-25T08:37:59.321Z,12.9
2022-09-25T08:39:06.436Z,12.9
2022-09-25T08:40:13.538Z,12.9
2022-09-25T08:41:20.120Z,12.9
2022-09-25T08:42:27.184Z,13
2022-09-25T08:43:34.251Z,12.9
2022-09-25T08:44:52.620Z,12.9
2022-09-25T08:45:48.063Z,12.9
2022-09-25T08:46:55.093Z,12.9
2022-09-25T08:48:02.177Z,13
2022-09-25T08:49:09.314Z,13
2022-09-25T08:50:22.062Z,13
2022-09-25T08:51:27.220Z,13
2022-09-25T08:52:30.052Z,13
2022-09-25T08:53:37.243Z,13.1
2022-09-25T08:54:45.735Z,13.1
2022-09-25T08:55:51.400Z,13.1
2022-09-25T08:56:58.051Z,13.1
2022-09-25T08:58:05.104Z,13.1
2022-09-25T08:59:12.213Z,13.1
2022-09-25T09:01:26.485Z,13.1
2022-09-25T09:02:33.204Z,13.1
2022-09-25T09:03:40.144Z,13.1
2022-09-25T09:04:47.251Z,13.1
2022-09-25T09:05:54.381Z,13.1
2022-09-25T09:07:25.681Z,13.1
2022-09-25T09:09:15.118Z,13.1
2022-09-25T09:10:22.338Z,13.1
2022-09-25T09:11:29.366Z,13.1
2022-09-25T09:12:36.566Z,13.1
2022-09-25T09:13:43.010Z,13.2
2022-09-25T09:14:50.214Z,13.2
2022-09-25T09:15:57.307Z,13.2
2022-09-25T09:17:04.308Z,13.2
2022-09-25T09:18:11.483Z,13.2
2022-09-25T09:19:23.462Z,13.2
2022-09-25T09:20:25.221Z,13.2
2022-09-25T09:21:32.368Z,13.2
2022-09-25T09:22:39.363Z,13.2
2022-09-25T09:23:45.975Z,13.2
2022-09-25T09:24:53.103Z,13.2
2022-09-25T09:26:00.203Z,13.2
2022-09-25T09:28:14.390Z,13.2
2022-09-25T09:29:20.978Z,13.2
2022-09-25T09:30:28.034Z,13.2
2022-09-25T09:31:35.704Z,13.2
2022-09-25T09:32:42.296Z,13.2
2022-09-25T09:33:49.379Z,13.1
2022-09-25T09:35:05.305Z,13.1
2022-09-25T09:37:10.173Z,13.1
2022-09-25T09:38:17.337Z,13.1
2022-09-25T09:39:24.323Z,13.1
2022-09-25T09:40:31.620Z,13.1
2022-09-25T09:41:38.084Z,13.1
2022-09-25T09:42:45.152Z,13.1
2022-09-25T09:43:57.168Z,13.1
2022-09-25T09:44:59.504Z,13.1
2022-09-25T09:46:06.149Z,13.1
2022-09-25T09:47:13.101Z,13.2
2022-09-25T09:48:20.159Z,13.2
2022-09-25T09:49:27.272Z,13.2
2022-09-25T09:50:36.725Z,13.2
2022-09-25T09:51:40.952Z,13.2
2022-09-25T09:52:48.058Z,13.2
2022-09-25T09:53:55.175Z,13.2
2022-09-25T09:55:02.318Z,13.2
2022-09-25T09:56:09.480Z,13.2
2022-09-25T09:57:16.005Z,13.1
2022-09-25T09:58:23.144Z,13.1
2022-09-25T09:59:30.183Z,13
2022-09-25T10:00:38.289Z,13
2022-09-25T10:01:44.398Z,13
2022-09-25T10:02:51.079Z,13
2022-09-25T10:05:05.193Z,13.1
2022-09-25T10:06:12.336Z,13.1
2022-09-25T10:07:19.423Z,13.1
2022-09-25T10:08:25.981Z,13.1
2022-09-25T10:09:33.084Z,13.1
2022-09-25T10:10:40.193Z,13.1
2022-09-25T10:11:47.290Z,13.1
2022-09-25T10:12:55.021Z,13.1
2022-09-25T10:14:01.013Z,13.1
2022-09-25T10:15:08.147Z,13.1
2022-09-25T10:16:15.386Z,13.2
2022-09-25T10:17:22.416Z,13.2
2022-09-25T10:18:29.406Z,13.1
2022-09-25T10:19:35.999Z,13.1
2022-09-25T10:20:43.061Z,13.1
2022-09-25T10:21:50.210Z,13.1
2022-09-25T10:22:57.471Z,13.1
2022-09-25T10:24:04.518Z,13.1
2022-09-25T10:25:11.001Z,13.1
2022-09-25T10:26:18.144Z,13.1
2022-09-25T10:27:25.239Z,13.1
2022-09-25T10:29:39.527Z,13.1
2022-09-25T10:33:00.282Z,13.2
2022-09-25T10:34:07.427Z,13.2
2022-09-25T10:35:14.136Z,13.2
2022-09-25T10:36:21.083Z,13.2
2022-09-25T10:37:28.120Z,13.2
2022-09-25T10:38:35.200Z,13.3
2022-09-25T10:39:45.118Z,13.3
2022-09-25T10:40:49.051Z,13.3
2022-09-25T10:41:56.049Z,13.3
2022-09-25T10:43:03.090Z,13.3
2022-09-25T10:44:10.317Z,13.3
2022-09-25T10:45:17.403Z,13.3
2022-09-25T10:46:24.143Z,13.3
2022-09-25T10:47:31.084Z,13.4
2022-09-25T10:48:38.183Z,13.4
2022-09-25T10:49:45.264Z,13.4
2022-09-25T10:50:52.328Z,13.4
2022-09-25T10:51:59.446Z,13.4
2022-09-25T10:53:06.068Z,13.4
2022-09-25T10:54:13.735Z,13.4
2022-09-25T10:55:20.283Z,13.4
2022-09-25T10:56:27.356Z,13.4
2022-09-25T10:57:33.902Z,13.4
2022-09-25T10:58:41.122Z,13.4
2022-09-25T10:59:48.137Z,13.5
2022-09-25T11:00:55.237Z,13.5
2022-09-25T11:02:02.520Z,13.5
2022-09-25T11:03:14.734Z,13.5
2022-09-25T11:04:16.108Z,13.4
2022-09-25T11:05:23.120Z,13.4
2022-09-25T11:06:31.344Z,13.4
2022-09-25T11:07:37.361Z,13.4
2022-09-25T11:08:43.997Z,13.4
2022-09-25T11:09:51.056Z,13.4
2022-09-25T11:10:58.230Z,13.4
2022-09-25T11:12:05.326Z,13.4
2022-09-25T11:13:12.484Z,13.4
2022-09-25T11:14:19.038Z,13.4
2022-09-25T11:15:26.026Z,13.4
2022-09-25T11:16:33.241Z,13.4
2022-09-25T11:17:40.276Z,13.4
2022-09-25T11:18:47.519Z,13.4
2022-09-25T11:19:54.659Z,13.4
2022-09-25T11:21:01.126Z,13.4
2022-09-25T11:22:08.277Z,13.5
2022-09-25T11:23:15.280Z,13.5
2022-09-25T11:24:22.511Z,13.5
2022-09-25T11:25:28.973Z,13.5
2022-09-25T11:26:36.196Z,13.6
2022-09-25T11:27:43.164Z,13.5
2022-09-25T11:28:50.371Z,13.6
2022-09-25T11:29:57.058Z,13.6
2022-09-25T11:31:04.109Z,13.6
2022-09-25T11:32:11.187Z,13.6
2022-09-25T11:33:18.223Z,13.6
2022-09-25T11:35:33.103Z,13.5
2022-09-25T11:36:39.028Z,13.6
2022-09-25T11:37:46.148Z,13.5
2022-09-25T11:38:53.167Z,13.5
2022-09-25T11:40:00.311Z,13.5
2022-09-25T11:41:07.542Z,13.5
2022-09-25T11:42:14.097Z,13.5
2022-09-25T11:43:21.066Z,13.5
2022-09-25T11:44:28.235Z,13.5
2022-09-25T11:45:35.287Z,13.5
2022-09-25T11:46:41.905Z,13.4
2022-09-25T11:47:49.144Z,13.4
2022-09-25T11:48:56.078Z,13.4
2022-09-25T11:50:03.222Z,13.4
2022-09-25T11:51:10.321Z,13.5
2022-09-25T11:52:17.206Z,13.5
2022-09-25T11:53:23.974Z,13.5
2022-09-25T11:54:34.203Z,13.5
2022-09-25T11:55:42.790Z,13.5
2022-09-25T11:57:52.207Z,13.4
2022-09-25T11:58:59.038Z,13.4
2022-09-25T12:00:06.135Z,13.4
2022-09-25T12:01:13.305Z,13.3
2022-09-25T12:03:27.193Z,13.3
2022-09-25T12:04:36.985Z,13.3
2022-09-25T12:05:41.198Z,13.2
2022-09-25T12:06:49.374Z,13.2
2022-09-25T12:07:55.349Z,13.2
2022-09-25T12:09:01.982Z,13.2
2022-09-25T12:10:09.116Z,13.2
2022-09-25T12:11:16.134Z,13.2
2022-09-25T12:12:23.282Z,13.2
2022-09-25T12:13:30.434Z,13.2
2022-09-25T12:14:36.979Z,13.2
2022-09-25T12:15:44.078Z,13.2
2022-09-25T12:17:58.378Z,13.2
2022-09-25T12:19:04.952Z,13.2
2022-09-25T12:20:13.779Z,13.2
2022-09-25T12:21:19.046Z,13.2
2022-09-25T12:22:26.218Z,13.2
2022-09-25T12:23:33.230Z,13.2
2022-09-25T12:24:39.804Z,13.2
2022-09-25T12:25:47.089Z,13.2
2022-09-25T12:26:54.082Z,13.2
2022-09-25T12:28:01.190Z,13.2
2022-09-25T12:29:08.256Z,13.2
2022-09-25T12:31:22.281Z,13.1
2022-09-25T12:32:29.152Z,13.1
2022-09-25T12:33:36.239Z,13.1
2022-09-25T12:34:43.237Z,13.1
2022-09-25T12:35:50.002Z,13
2022-09-25T12:36:57.110Z,13
2022-09-25T12:39:11.381Z,13
2022-09-25T12:40:18.481Z,13
2022-09-25T12:41:24.913Z,13
2022-09-25T12:42:32.061Z,12.9
2022-09-25T12:43:39.226Z,12.9
2022-09-25T12:44:46.225Z,12.9
2022-09-25T12:45:53.393Z,12.9
2022-09-25T12:46:59.965Z,12.9
2022-09-25T12:48:07.196Z,12.8
2022-09-25T12:49:14.049Z,12.7
2022-09-25T12:50:21.333Z,12.7
2022-09-25T12:51:28.402Z,12.6
2022-09-25T12:52:35.507Z,12.4
2022-09-25T12:53:42.124Z,12.4
2022-09-25T12:54:49.198Z,12.3
2022-09-25T12:55:56.191Z,12.3
2022-09-25T12:57:03.363Z,12.2
2022-09-25T12:59:17.074Z,12.2
2022-09-25T13:00:24.059Z,12.1
2022-09-25T13:01:31.331Z,12
2022-09-25T13:02:38.379Z,12
2022-09-25T13:03:44.964Z,12
2022-09-25T13:04:53.176Z,11.9
2022-09-25T13:05:59.274Z,11.9
2022-09-25T13:07:06.352Z,11.9
2022-09-25T13:08:13.467Z,11.9
2022-09-25T13:09:20.065Z,11.9
2022-09-25T13:10:27.125Z,11.9
2022-09-25T13:11:34.075Z,11.9
2022-09-25T13:12:41.430Z,11.9
2022-09-25T13:13:48.315Z,11.9
2022-09-25T13:14:55.576Z,11.9
2022-09-25T13:16:02.205Z,11.9
2022-09-25T13:17:09.115Z,11.9
2022-09-25T13:18:16.344Z,11.9
2022-09-25T13:19:23.453Z,11.9
2022-09-25T13:20:29.917Z,11.9
2022-09-25T13:21:37.197Z,11.9
2022-09-25T13:22:44.135Z,11.9
2022-09-25T13:23:51.386Z,11.9
2022-09-25T13:26:04.970Z,11.9
2022-09-25T13:27:12.123Z,11.8
2022-09-25T13:28:19.319Z,11.8
2022-09-25T13:29:26.397Z,11.8
2022-09-25T13:30:32.953Z,11.8
2022-09-25T13:31:39.924Z,11.8
2022-09-25T13:32:47.656Z,11.8
2022-09-25T13:33:54.103Z,11.8
2022-09-25T13:35:01.628Z,11.8
2022-09-25T13:36:08.359Z,11.7
2022-09-25T13:37:15.051Z,11.8
2022-09-25T13:38:22.133Z,11.7
2022-09-25T13:40:38.739Z,11.7
2022-09-25T13:42:50.123Z,11.7
2022-09-25T13:43:57.042Z,11.7
2022-09-25T13:45:04.292Z,11.7
2022-09-25T13:46:11.655Z,11.7
2022-09-25T13:47:17.912Z,11.8
2022-09-25T13:48:25.012Z,11.8
2022-09-25T13:49:32.199Z,11.7
2022-09-25T13:50:39.316Z,11.7
2022-09-25T13:51:46.571Z,11.7
2022-09-25T13:52:52.927Z,11.7
2022-09-25T13:54:00.068Z,11.8
2022-09-25T13:55:07.174Z,11.8
2022-09-25T13:56:14.133Z,11.8
2022-09-25T13:57:21.273Z,11.8
2022-09-25T13:58:28.001Z,11.8
2022-09-25T13:59:34.930Z,11.8
2022-09-25T14:00:41.558Z,11.8
2022-09-25T14:01:49.358Z,11.8
2022-09-25T14:02:56.395Z,11.8
2022-09-25T14:04:03.349Z,11.8
2022-09-25T14:05:09.970Z,11.9
2022-09-25T14:06:17.084Z,11.9
2022-09-25T14:07:24.318Z,11.9
2022-09-25T14:08:31.541Z,11.9
2022-09-25T14:09:38.059Z,11.9
2022-09-25T14:10:45.096Z,11.9
2022-09-25T14:11:52.183Z,11.9
2022-09-25T14:13:03.282Z,11.9
2022-09-25T14:14:06.459Z,11.9
2022-09-25T14:15:12.996Z,11.9
2022-09-25T14:16:20.247Z,12
2022-09-25T14:17:27.091Z,12
2022-09-25T14:18:34.343Z,12
2022-09-25T14:19:41.598Z,12.1
2022-09-25T14:21:54.961Z,12
2022-09-25T14:23:02.105Z,12.1
2022-09-25T14:24:09.427Z,12.1
2022-09-25T14:25:17.216Z,12.1
2022-09-25T14:26:23.047Z,12.2
2022-09-25T14:27:29.999Z,12.2
2022-09-25T14:29:44.333Z,12.2
2022-09-25T14:30:51.506Z,12.2
2022-09-25T14:31:57.937Z,12.2
2022-09-25T14:33:04.973Z,12.2
2022-09-25T14:34:12.244Z,12.2
2022-09-25T14:35:19.355Z,12.3
2022-09-25T14:36:26.591Z,12.3
2022-09-25T14:37:32.987Z,12.3
2022-09-25T14:38:40.017Z,12.3
2022-09-25T14:39:47.267Z,12.4
2022-09-25T14:40:54.455Z,12.4
2022-09-25T14:42:01.488Z,12.4
2022-09-25T14:43:08.092Z,12.4
2022-09-25T14:44:15.175Z,12.4
2022-09-25T14:46:29.472Z,12.5
2022-09-25T14:47:36.574Z,12.5
2022-09-25T14:48:43.106Z,12.5
2022-09-25T14:49:50.041Z,12.5
2022-09-25T14:50:57.130Z,12.5
2022-09-25T14:52:04.208Z,12.6
2022-09-25T14:54:18.106Z,12.6
2022-09-25T14:55:25.144Z,12.6
2022-09-25T14:57:39.418Z,12.6
2022-09-25T14:58:45.980Z,12.7
2022-09-25T14:59:53.150Z,12.7
2022-09-25T15:01:00.042Z,12.7
2022-09-25T15:03:15.017Z,12.8
2022-09-25T15:04:20.990Z,12.8
2022-09-25T15:05:28.151Z,12.8
2022-09-25T15:06:35.241Z,12.8
2022-09-25T15:07:42.360Z,12.8
2022-09-25T15:08:49.463Z,12.8
2022-09-25T15:09:56.009Z,12.8
2022-09-25T15:11:03.103Z,12.9
2022-09-25T15:12:10.281Z,12.9
2022-09-25T15:13:17.411Z,12.9
2022-09-25T15:14:24.449Z,12.9
2022-09-25T15:15:31.044Z,12.9
2022-09-25T15:16:38.004Z,12.9
2022-09-25T15:17:45.028Z,12.9
2022-09-25T15:18:52.178Z,12.9
2022-09-25T15:19:59.274Z,12.9
2022-09-25T15:21:06.082Z,13
2022-09-25T15:22:13.156Z,13
2022-09-25T15:23:20.237Z,13
2022-09-25T15:24:27.178Z,13.1
2022-09-25T15:25:34.434Z,13.1
2022-09-25T15:26:41.088Z,13.1
2022-09-25T15:27:48.000Z,13.1
2022-09-25T15:28:55.206Z,13.1
2022-09-25T15:30:02.297Z,13.1
2022-09-25T15:31:08.988Z,13.1
2022-09-25T15:32:16.098Z,13.1
2022-09-25T15:33:23.181Z,13.1
2022-09-25T15:34:30.087Z,13.1
2022-09-25T15:35:37.198Z,13.1
2022-09-25T15:36:43.872Z,13.2
2022-09-25T15:37:50.893Z,13.2
2022-09-25T15:38:58.113Z,13.2
2022-09-25T15:40:05.252Z,13.2
2022-09-25T15:41:12.448Z,13.2
2022-09-25T15:42:19.545Z,13.2
2022-09-25T15:44:32.961Z,13.2
2022-09-25T15:45:40.519Z,13.3
2022-09-25T15:46:49.489Z,13.3
2022-09-25T15:47:53.766Z,13.3
2022-09-25T15:50:08.253Z,13.3
2022-09-25T15:51:15.335Z,13.3
2022-09-25T15:52:22.396Z,13.4
2022-09-25T15:53:28.958Z,13.4
2022-09-25T15:54:36.095Z,13.4
2022-09-25T15:55:42.979Z,13.4
2022-09-25T15:56:50.255Z,13.4
2022-09-25T15:57:57.229Z,13.4
2022-09-25T15:59:03.985Z,13.5
2022-09-25T16:00:11.077Z,13.5
2022-09-25T16:01:18.308Z,13.5
2022-09-25T16:02:25.360Z,13.5
2022-09-25T16:03:32.410Z,13.5
2022-09-25T16:04:39.346Z,13.5
2022-09-25T16:05:46.121Z,13.5
2022-09-25T16:06:53.075Z,13.6
2022-09-25T16:08:00.137Z,13.6
2022-09-25T16:09:07.231Z,13.6
2022-09-25T16:10:14.094Z,13.6